createdAt,value
2022-09-21T00:01:19.962Z,101439.47
2022-09-21T00:03:46.958Z,101443.19
2022-09-21T00:06:16.909Z,101445.03
2022-09-21T00:08:44.135Z,101444.19
2022-09-21T00:11:15.111Z,101441.00
2022-09-21T00:13:42.405Z,101444.44
2022-09-21T00:16:09.477Z,101448.13
2022-09-21T00:18:37.429Z,101453.56
2022-09-21T00:21:12.412Z,101450.84
2022-09-21T00:23:39.907Z,101450.31
2022-09-21T00:26:11.818Z,101445.34
2022-09-21T00:28:40.732Z,101449.22
2022-09-21T00:31:12.285Z,101446.38
2022-09-21T00:33:39.762Z,101443.31
2022-09-21T00:36:08.201Z,101450.16
2022-09-21T00:38:35.492Z,101447.28
2022-09-21T00:41:02.128Z,101442.69
2022-09-21T00:43:28.718Z,101450.84
2022-09-21T00:46:04.108Z,101447.00
2022-09-21T00:48:31.070Z,101443.81
2022-09-21T00:51:04.397Z,101440.06
2022-09-21T00:53:32.421Z,101443.81
2022-09-21T00:55:59.512Z,101450.91
2022-09-21T00:58:31.067Z,101444.09
2022-09-21T01:00:59.683Z,101443.25
2022-09-21T01:03:27.946Z,101439.50
2022-09-21T01:05:54.629Z,101442.06
2022-09-21T01:08:21.805Z,101443.47
2022-09-21T01:11:08.271Z,101447.72
2022-09-21T01:13:56.972Z,101443.19
2022-09-21T01:16:49.370Z,101438.03
2022-09-21T01:19:27.840Z,101443.47
2022-09-21T01:22:08.944Z,101443.47
2022-09-21T01:25:16.242Z,101436.03
2022-09-21T01:28:04.808Z,101441.44
2022-09-21T01:30:33.998Z,101442.78
2022-09-21T01:33:09.892Z,101437.50
2022-09-21T01:35:41.256Z,101436.50
2022-09-21T01:38:15.283Z,101440.91
2022-09-21T01:40:44.052Z,101435.66
2022-09-21T01:43:14.500Z,101433.78
2022-09-21T01:45:50.113Z,101437.69
2022-09-21T01:48:17.550Z,101432.53
2022-09-21T01:50:48.672Z,101432.53
2022-09-21T01:53:23.540Z,101433.56
2022-09-21T01:55:54.774Z,101434.75
2022-09-21T01:58:47.459Z,101434.19
2022-09-21T02:01:17.043Z,101429.25
2022-09-21T02:03:53.287Z,101433.66
2022-09-21T02:06:20.535Z,101425.66
2022-09-21T02:08:47.201Z,101426.69
2022-09-21T02:11:14.062Z,101433.97
2022-09-21T02:13:45.154Z,101436.84
2022-09-21T02:16:42.679Z,101431.41
2022-09-21T02:19:19.729Z,101437.53
2022-09-21T02:22:14.288Z,101431.06
2022-09-21T02:24:47.750Z,101437.38
2022-09-21T02:27:32.564Z,101427.38
2022-09-21T02:30:17.347Z,101431.97
2022-09-21T02:33:11.469Z,101428.06
2022-09-21T02:35:40.695Z,101424.50
2022-09-21T02:38:28.348Z,101426.53
2022-09-21T02:41:02.718Z,101427.38
2022-09-21T02:43:41.155Z,101426.53
2022-09-21T02:46:15.077Z,101420.22
2022-09-21T02:48:47.645Z,101418.53
2022-09-21T02:51:17.964Z,101419.72
2022-09-21T02:53:45.592Z,101424.25
2022-09-21T02:56:12.689Z,101429.69
2022-09-21T02:58:42.211Z,101435.81
2022-09-21T03:01:11.685Z,101436.50
2022-09-21T03:03:38.249Z,101431.78
2022-09-21T03:06:04.995Z,101438.59
2022-09-21T03:08:31.944Z,101433.88
2022-09-21T03:10:58.389Z,101439.69
2022-09-21T03:13:25.248Z,101437.69
2022-09-21T03:15:59.808Z,101441.22
2022-09-21T03:18:26.424Z,101442.78
2022-09-21T03:20:52.957Z,101439.75
2022-09-21T03:23:19.440Z,101441.44
2022-09-21T03:25:46.229Z,101444.88
2022-09-21T03:28:14.132Z,101442.53
2022-09-21T03:30:41.128Z,101442.06
2022-09-21T03:33:08.304Z,101442.78
2022-09-21T03:35:34.861Z,101447.31
2022-09-21T03:38:02.141Z,101444.47
2022-09-21T03:40:28.900Z,101445.19
2022-09-21T03:42:55.678Z,101454.16
2022-09-21T03:45:22.439Z,101446.03
2022-09-21T03:47:49.135Z,101448.44
2022-09-21T03:50:15.836Z,101448.97
2022-09-21T03:52:42.585Z,101451.22
2022-09-21T03:55:09.566Z,101454.28
2022-09-21T03:57:36.742Z,101456.38
2022-09-21T04:00:06.823Z,101457.59
2022-09-21T04:02:33.373Z,101466.78
2022-09-21T04:05:00.041Z,101466.31
2022-09-21T04:07:26.821Z,101468.56
2022-09-21T04:09:54.000Z,101465.50
2022-09-21T04:12:23.353Z,101472.81
2022-09-21T04:14:49.884Z,101480.44
2022-09-21T04:17:16.883Z,101471.22
2022-09-21T04:19:45.526Z,101475.81
2022-09-21T04:22:15.347Z,101477.50
2022-09-21T04:24:41.823Z,101481.25
2022-09-21T04:27:09.375Z,101486.34
2022-09-21T04:29:36.345Z,101483.00
2022-09-21T04:32:03.529Z,101495.94
2022-09-21T04:34:31.168Z,101492.56
2022-09-21T04:36:58.460Z,101494.66
2022-09-21T04:39:25.617Z,101498.75
2022-09-21T04:41:52.165Z,101498.41
2022-09-21T04:44:21.235Z,101508.28
2022-09-21T04:46:48.108Z,101508.97
2022-09-21T04:49:14.605Z,101504.91
2022-09-21T04:51:41.132Z,101505.28
2022-09-21T04:54:07.790Z,101506.69
2022-09-21T04:56:34.611Z,101513.66
2022-09-21T04:59:01.384Z,101519.78
2022-09-21T05:01:28.360Z,101511.47
2022-09-21T05:03:55.106Z,101513.16
2022-09-21T05:06:21.744Z,101527.78
2022-09-21T05:09:07.073Z,101520.28
2022-09-21T05:11:33.575Z,101519.25
2022-09-21T05:14:00.143Z,101513.81
2022-09-21T05:16:26.678Z,101522.34
2022-09-21T05:18:55.004Z,101517.25
2022-09-21T05:21:21.888Z,101527.47
2022-09-21T05:23:48.373Z,101526.28
2022-09-21T05:26:15.083Z,101538.03
2022-09-21T05:28:42.033Z,101530.88
2022-09-21T05:31:49.611Z,101529.34
2022-09-21T05:34:53.618Z,101539.38
2022-09-21T05:37:46.304Z,101534.63
2022-09-21T05:40:13.455Z,101540.41
2022-09-21T05:42:40.431Z,101545.56
2022-09-21T05:45:09.143Z,101542.34
2022-09-21T05:47:46.046Z,101546.44
2022-09-21T05:50:34.564Z,101551.38
2022-09-21T05:53:22.036Z,101551.91
2022-09-21T05:56:03.523Z,101550.22
2022-09-21T05:58:51.758Z,101554.84
2022-09-21T06:01:18.286Z,101559.63
2022-09-21T06:03:45.204Z,101563.72
2022-09-21T06:06:11.954Z,101567.97
2022-09-21T06:08:38.717Z,101571.22
2022-09-21T06:11:05.440Z,101567.47
2022-09-21T06:13:32.028Z,101567.47
2022-09-21T06:16:02.441Z,101561.00
2022-09-21T06:18:29.348Z,101566.81
2022-09-21T06:20:55.912Z,101568.53
2022-09-21T06:23:22.660Z,101572.59
2022-09-21T06:25:58.069Z,101572.44
2022-09-21T06:28:25.242Z,101575.16
2022-09-21T06:30:52.731Z,101574.66
2022-09-21T06:33:23.635Z,101574.19
2022-09-21T06:35:54.395Z,101567.41
2022-09-21T06:38:21.420Z,101578.09
2022-09-21T06:40:48.044Z,101579.63
2022-09-21T06:43:14.650Z,101575.72
2022-09-21T06:45:41.307Z,101583.53
2022-09-21T06:48:08.126Z,101590.88
2022-09-21T06:50:34.823Z,101587.66
2022-09-21T06:53:02.569Z,101590.03
2022-09-21T06:55:32.559Z,101595.16
2022-09-21T06:58:03.375Z,101589.69
2022-09-21T07:00:30.472Z,101596.16
2022-09-21T07:02:57.026Z,101598.56
2022-09-21T07:05:24.246Z,101596.50
2022-09-21T07:07:53.503Z,101591.75
2022-09-21T07:10:20.975Z,101591.91
2022-09-21T07:12:47.762Z,101598.19
2022-09-21T07:15:15.447Z,101600.25
2022-09-21T07:17:43.098Z,101605.00
2022-09-21T07:20:09.752Z,101601.97
2022-09-21T07:22:36.552Z,101603.31
2022-09-21T07:25:04.990Z,101607.56
2022-09-21T07:27:32.961Z,101607.22
2022-09-21T07:29:59.458Z,101611.31
2022-09-21T07:32:27.363Z,101605.38
2022-09-21T07:34:57.069Z,101618.84
2022-09-21T07:37:24.676Z,101623.78
2022-09-21T07:39:52.869Z,101628.56
2022-09-21T07:42:21.528Z,101631.44
2022-09-21T07:44:48.395Z,101628.22
2022-09-21T07:47:15.888Z,101632.13
2022-09-21T07:49:43.766Z,101638.06
2022-09-21T07:52:11.275Z,101634.34
2022-09-21T07:54:38.226Z,101637.38
2022-09-21T07:57:23.572Z,101633.28
2022-09-21T07:59:50.501Z,101641.16
2022-09-21T08:02:17.146Z,101645.56
2022-09-21T08:04:43.873Z,101646.41
2022-09-21T08:07:10.551Z,101650.69
2022-09-21T08:09:37.087Z,101654.94
2022-09-21T08:12:03.723Z,101657.13
2022-09-21T08:14:30.321Z,101652.53
2022-09-21T08:16:57.071Z,101656.81
2022-09-21T08:19:25.921Z,101657.81
2022-09-21T08:21:57.212Z,101669.38
2022-09-21T08:24:26.595Z,101664.44
2022-09-21T08:26:53.623Z,101663.75
2022-09-21T08:29:20.288Z,101664.75
2022-09-21T08:31:47.176Z,101668.16
2022-09-21T08:34:14.303Z,101671.75
2022-09-21T08:36:41.051Z,101674.13
2022-09-21T08:39:10.889Z,101677.53
2022-09-21T08:41:56.662Z,101682.47
2022-09-21T08:44:30.832Z,101679.38
2022-09-21T08:47:19.663Z,101683.34
2022-09-21T08:49:51.466Z,101686.41
2022-09-21T08:52:20.006Z,101683.47
2022-09-21T08:55:01.983Z,101679.75
2022-09-21T08:57:33.751Z,101692.69
2022-09-21T09:00:01.790Z,101686.69
2022-09-21T09:02:46.857Z,101685.63
2022-09-21T09:05:31.573Z,101690.03
2022-09-21T09:08:08.223Z,101691.88
2022-09-21T09:10:38.434Z,101694.94
2022-09-21T09:13:17.284Z,101693.88
2022-09-21T09:15:58.932Z,101696.28
2022-09-21T09:19:08.860Z,101696.22
2022-09-21T09:21:40.954Z,101697.91
2022-09-21T09:24:35.991Z,101702.00
2022-09-21T09:27:06.450Z,101700.72
2022-09-21T09:29:35.823Z,101699.84
2022-09-21T09:32:03.661Z,101698.91
2022-09-21T09:34:41.013Z,101697.78
2022-09-21T09:37:13.332Z,101695.38
2022-09-21T09:39:42.503Z,101701.72
2022-09-21T09:42:33.049Z,101696.25
2022-09-21T09:44:59.802Z,101700.84
2022-09-21T09:47:50.666Z,101703.78
2022-09-21T09:50:20.485Z,101710.09
2022-09-21T09:52:48.851Z,101712.56
2022-09-21T09:55:21.358Z,101709.72
2022-09-21T09:57:49.056Z,101711.63
2022-09-21T10:00:18.679Z,101714.34
2022-09-21T10:02:58.899Z,101719.66
2022-09-21T10:05:38.210Z,101716.19
2022-09-21T10:08:04.789Z,101720.56
2022-09-21T10:10:35.889Z,101718.97
2022-09-21T10:13:02.443Z,101721.22
2022-09-21T10:15:29.263Z,101716.72
2022-09-21T10:18:10.956Z,101716.44
2022-09-21T10:20:37.512Z,101719.75
2022-09-21T10:23:05.416Z,101722.34
2022-09-21T10:25:33.960Z,101715.72
2022-09-21T10:28:03.705Z,101717.34
2022-09-21T10:30:30.218Z,101716.06
2022-09-21T10:32:58.415Z,101706.69
2022-09-21T10:35:26.235Z,101706.69
2022-09-21T10:38:32.386Z,101704.06
2022-09-21T10:40:58.907Z,101709.44
2022-09-21T10:43:42.622Z,101710.19
2022-09-21T10:46:10.330Z,101723.19
2022-09-21T10:48:37.172Z,101713.13
2022-09-21T10:51:04.223Z,101716.38
2022-09-21T10:53:33.047Z,101716.47
2022-09-21T10:56:16.617Z,101720.94
2022-09-21T10:59:10.391Z,101717.59
2022-09-21T11:01:37.003Z,101712.53
2022-09-21T11:04:07.645Z,101711.25
2022-09-21T11:06:39.436Z,101709.75
2022-09-21T11:09:19.730Z,101718.09
2022-09-21T11:12:20.470Z,101719.28
2022-09-21T11:14:53.694Z,101712.97
2022-09-21T11:17:26.548Z,101714.13
2022-09-21T11:20:09.896Z,101709.41
2022-09-21T11:22:45.247Z,101708.56
2022-09-21T11:25:33.615Z,101708.66
2022-09-21T11:28:25.528Z,101707.81
2022-09-21T11:31:05.208Z,101711.31
2022-09-21T11:33:34.486Z,101701.19
2022-09-21T11:36:07.164Z,101711.97
2022-09-21T11:38:45.868Z,101713.47
2022-09-21T11:41:35.772Z,101705.00
2022-09-21T11:44:07.472Z,101707.34
2022-09-21T11:47:03.214Z,101704.88
2022-09-21T11:50:07.860Z,101696.44
2022-09-21T11:52:45.252Z,101711.06
2022-09-21T11:55:30.224Z,101703.41
2022-09-21T11:58:21.880Z,101701.59
2022-09-21T12:00:49.994Z,101704.25
2022-09-21T12:03:23.428Z,101700.69
2022-09-21T12:05:58.362Z,101707.00
2022-09-21T12:08:35.963Z,101698.25
2022-09-21T12:11:23.545Z,101702.72
2022-09-21T12:13:52.093Z,101703.13
2022-09-21T12:16:40.803Z,101701.13
2022-09-21T12:19:51.657Z,101701.78
2022-09-21T12:22:27.926Z,101703.91
2022-09-21T12:25:10.913Z,101711.78
2022-09-21T12:27:41.117Z,101705.34
2022-09-21T12:30:21.768Z,101703.50
2022-09-21T12:32:54.300Z,101714.13
2022-09-21T12:35:34.559Z,101709.34
2022-09-21T12:38:21.810Z,101708.88
2022-09-21T12:41:10.200Z,101708.44
2022-09-21T12:43:44.887Z,101700.31
2022-09-21T12:46:34.512Z,101702.38
2022-09-21T12:49:05.816Z,101698.78
2022-09-21T12:51:38.790Z,101722.84
2022-09-21T12:54:24.178Z,101703.59
2022-09-21T12:56:51.240Z,101704.28
2022-09-21T12:59:52.737Z,101702.78
2022-09-21T13:02:41.223Z,101692.69
2022-09-21T13:05:43.321Z,101699.50
2022-09-21T13:08:18.404Z,101689.44
2022-09-21T13:11:01.157Z,101710.63
2022-09-21T13:13:38.477Z,101689.66
2022-09-21T13:16:23.908Z,101691.22
2022-09-21T13:18:58.823Z,101689.53
2022-09-21T13:21:27.927Z,101700.59
2022-09-21T13:24:05.745Z,101712.34
2022-09-21T13:26:32.856Z,101701.59
2022-09-21T13:29:19.777Z,101692.25
2022-09-21T13:31:59.540Z,101696.66
2022-09-21T13:34:29.286Z,101698.03
2022-09-21T13:37:17.843Z,101690.38
2022-09-21T13:39:47.912Z,101684.72
2022-09-21T13:42:29.775Z,101701.25
2022-09-21T13:44:57.997Z,101686.28
2022-09-21T13:47:42.698Z,101696.66
2022-09-21T13:50:43.022Z,101715.22
2022-09-21T13:53:19.252Z,101689.84
2022-09-21T13:55:51.720Z,101704.16
2022-09-21T13:58:37.482Z,101693.25
2022-09-21T14:01:35.585Z,101691.56
2022-09-21T14:04:03.994Z,101708.78
2022-09-21T14:06:35.722Z,101692.09
2022-09-21T14:09:05.864Z,101697.34
2022-09-21T14:11:45.115Z,101701.78
2022-09-21T14:14:12.285Z,101693.63
2022-09-21T14:16:39.565Z,101687.13
2022-09-21T14:19:18.029Z,101693.09
2022-09-21T14:22:03.372Z,101708.78
2022-09-21T14:24:47.136Z,101695.28
2022-09-21T14:27:25.985Z,101692.88
2022-09-21T14:29:56.446Z,101688.28
2022-09-21T14:32:25.813Z,101685.03
2022-09-21T14:35:11.061Z,101680.03
2022-09-21T14:37:43.798Z,101679.13
2022-09-21T14:40:19.626Z,101672.06
2022-09-21T14:42:47.478Z,101673.66
2022-09-21T14:45:18.832Z,101676.06
2022-09-21T14:48:02.738Z,101677.97
2022-09-21T14:50:36.169Z,101673.72
2022-09-21T14:53:14.973Z,101675.25
2022-09-21T14:56:00.104Z,101681.09
2022-09-21T14:58:33.409Z,101686.03
2022-09-21T15:01:27.621Z,101686.06
2022-09-21T15:04:16.686Z,101686.06
2022-09-21T15:07:29.455Z,101686.94
2022-09-21T15:10:33.392Z,101688.31
2022-09-21T15:13:10.056Z,101683.72
2022-09-21T15:15:45.064Z,101686.81
2022-09-21T15:18:20.089Z,101687.13
2022-09-21T15:21:01.842Z,101688.50
2022-09-21T15:23:31.951Z,101681.00
2022-09-21T15:26:05.463Z,101683.72
2022-09-21T15:29:07.725Z,101690.88
2022-09-21T15:31:48.838Z,101696.34
2022-09-21T15:34:15.503Z,101698.38
2022-09-21T15:36:43.464Z,101699.41
2022-09-21T15:39:27.112Z,101691.22
2022-09-21T15:42:23.048Z,101692.59
2022-09-21T15:44:50.512Z,101698.69
2022-09-21T15:47:22.734Z,101693.44
2022-09-21T15:49:50.944Z,101694.63
2022-09-21T15:52:31.578Z,101689.53
2022-09-21T15:55:09.205Z,101699.75
2022-09-21T15:57:43.066Z,101699.06
2022-09-21T16:00:15.827Z,101696.69
2022-09-21T16:02:56.071Z,101700.88
2022-09-21T16:05:25.393Z,101705.13
2022-09-21T16:08:05.101Z,101702.06
2022-09-21T16:10:31.612Z,101708.69
2022-09-21T16:13:30.879Z,101704.44
2022-09-21T16:16:15.643Z,101709.72
2022-09-21T16:18:47.904Z,101709.56
2022-09-21T16:21:29.173Z,101711.94
2022-09-21T16:23:57.484Z,101709.91
2022-09-21T16:26:35.630Z,101711.09
2022-09-21T16:29:26.448Z,101712.28
2022-09-21T16:32:14.234Z,101711.75
2022-09-21T16:34:40.740Z,101711.59
2022-09-21T16:37:31.427Z,101711.59
2022-09-21T16:39:59.239Z,101713.63
2022-09-21T16:42:28.236Z,101715.00
2022-09-21T16:44:55.447Z,101715.66
2022-09-21T16:47:25.407Z,101712.41
2022-09-21T16:49:58.069Z,101719.72
2022-09-21T16:52:24.911Z,101717.66
2022-09-21T16:54:51.426Z,101719.34
2022-09-21T16:57:18.491Z,101724.81
2022-09-21T16:59:45.077Z,101728.22
2022-09-21T17:02:14.116Z,101729.06
2022-09-21T17:04:40.990Z,101728.53
2022-09-21T17:07:07.662Z,101728.69
2022-09-21T17:09:38.302Z,101733.28
2022-09-21T17:12:09.645Z,101733.44
2022-09-21T17:14:38.045Z,101728.47
2022-09-21T17:17:28.366Z,101718.59
2022-09-21T17:19:54.991Z,101720.47
2022-09-21T17:22:22.376Z,101727.09
2022-09-21T17:24:54.999Z,101728.13
2022-09-21T17:27:23.799Z,101736.97
2022-09-21T17:29:50.821Z,101730.50
2022-09-21T17:32:22.241Z,101740.69
2022-09-21T17:35:01.631Z,101738.31
2022-09-21T17:37:28.218Z,101740.88
2022-09-21T17:39:54.844Z,101736.28
2022-09-21T17:42:25.072Z,101742.38
2022-09-21T17:45:16.322Z,101737.50
2022-09-21T17:47:43.615Z,101742.53
2022-09-21T17:50:13.200Z,101732.28
2022-09-21T17:53:02.037Z,101734.88
2022-09-21T17:55:28.912Z,101741.50
2022-09-21T17:58:16.767Z,101741.72
2022-09-21T18:00:50.414Z,101748.53
2022-09-21T18:03:28.548Z,101745.34
2022-09-21T18:06:00.843Z,101749.63
2022-09-21T18:08:29.185Z,101751.63
2022-09-21T18:11:14.697Z,101762.38
2022-09-21T18:13:54.463Z,101766.78
2022-09-21T18:16:59.392Z,101764.75
2022-09-21T18:19:35.545Z,101764.75
2022-09-21T18:22:21.055Z,101770.53
2022-09-21T18:24:48.034Z,101781.56
2022-09-21T18:27:15.936Z,101785.97
2022-09-21T18:29:42.769Z,101785.84
2022-09-21T18:32:21.562Z,101787.25
2022-09-21T18:35:15.980Z,101791.66
2022-09-21T18:38:00.756Z,101788.94
2022-09-21T18:40:48.853Z,101792.69
2022-09-21T18:43:30.413Z,101793.53
2022-09-21T18:46:23.077Z,101798.97
2022-09-21T18:49:20.526Z,101799.44
2022-09-21T18:51:54.361Z,101795.31
2022-09-21T18:54:27.266Z,101803.59
2022-09-21T18:56:55.481Z,101791.50
2022-09-21T18:59:22.671Z,101798.81
2022-09-21T19:01:50.798Z,101797.09
2022-09-21T19:04:19.045Z,101797.94
2022-09-21T19:07:17.954Z,101804.00
2022-09-21T19:10:05.634Z,101799.75
2022-09-21T19:12:50.661Z,101806.03
2022-09-21T19:15:58.572Z,101813.19
2022-09-21T19:18:37.974Z,101808.59
2022-09-21T19:21:22.823Z,101807.28
2022-09-21T19:24:08.068Z,101804.25
2022-09-21T19:26:46.819Z,101808.50
2022-09-21T19:29:22.332Z,101813.97
2022-09-21T19:31:49.004Z,101812.78
2022-09-21T19:34:19.443Z,101812.78
2022-09-21T19:36:49.755Z,101818.56
2022-09-21T19:39:16.813Z,101816.50
2022-09-21T19:41:56.292Z,101812.63
2022-09-21T19:44:34.518Z,101813.97
2022-09-21T19:47:25.686Z,101816.97
2022-09-21T19:49:54.464Z,101815.28
2022-09-21T19:52:30.454Z,101816.97
2022-09-21T19:55:16.185Z,101816.13
2022-09-21T19:58:01.390Z,101819.00
2022-09-21T20:00:28.072Z,101811.03
2022-09-21T20:03:15.236Z,101816.63
2022-09-21T20:05:58.264Z,101813.03
2022-09-21T20:08:54.397Z,101815.22
2022-09-21T20:11:56.618Z,101811.75
2022-09-21T20:14:47.831Z,101814.47
2022-09-21T20:17:20.069Z,101810.75
2022-09-21T20:20:08.121Z,101818.03
2022-09-21T20:22:40.186Z,101820.75
2022-09-21T20:25:15.685Z,101815.16
2022-09-21T20:27:46.263Z,101815.50
2022-09-21T20:30:15.729Z,101825.97
2022-09-21T20:32:45.043Z,101818.84
2022-09-21T20:35:23.290Z,101820.53
2022-09-21T20:37:51.714Z,101829.31
2022-09-21T20:40:20.285Z,101825.03
2022-09-21T20:42:46.867Z,101832.19
2022-09-21T20:45:13.803Z,101833.97
2022-09-21T20:47:40.476Z,101836.69
2022-09-21T20:50:11.604Z,101832.97
2022-09-21T20:52:42.404Z,101830.97
2022-09-21T20:55:11.052Z,101835.50
2022-09-21T20:57:37.588Z,101843.00
2022-09-21T21:00:06.815Z,101846.72
2022-09-21T21:02:33.566Z,101848.25
2022-09-21T21:05:00.435Z,101850.69
2022-09-21T21:07:30.476Z,101850.69
2022-09-21T21:09:57.926Z,101853.22
2022-09-21T21:12:24.675Z,101861.25
2022-09-21T21:14:51.257Z,101853.78
2022-09-21T21:17:18.922Z,101861.78
2022-09-21T21:19:45.424Z,101856.50
2022-09-21T21:22:13.208Z,101861.09
2022-09-21T21:24:40.267Z,101867.38
2022-09-21T21:27:08.814Z,101860.94
2022-09-21T21:29:35.356Z,101864.81
2022-09-21T21:32:02.195Z,101867.53
2022-09-21T21:34:28.923Z,101872.09
2022-09-21T21:36:55.949Z,101868.41
2022-09-21T21:39:22.430Z,101868.53
2022-09-21T21:41:48.952Z,101867.84
2022-09-21T21:44:15.845Z,101871.56
2022-09-21T21:46:43.377Z,101877.88
2022-09-21T21:49:10.054Z,101883.59
2022-09-21T21:51:36.589Z,101885.94
2022-09-21T21:54:03.202Z,101879.41
2022-09-21T21:56:29.822Z,101879.56
2022-09-21T21:58:56.710Z,101887.88
2022-09-21T22:01:26.465Z,101886.16
2022-09-21T22:03:55.183Z,101886.84
2022-09-21T22:06:22.379Z,101878.69
2022-09-21T22:08:49.638Z,101880.41
2022-09-21T22:11:17.588Z,101882.81
2022-09-21T22:13:45.694Z,101879.09
2022-09-21T22:16:15.194Z,101887.25
2022-09-21T22:18:42.212Z,101883.84
2022-09-21T22:21:17.405Z,101879.03
2022-09-21T22:23:44.140Z,101880.72
2022-09-21T22:26:13.374Z,101875.28
2022-09-21T22:28:41.614Z,101878.69
2022-09-21T22:31:20.083Z,101875.13
2022-09-21T22:33:47.229Z,101881.41
2022-09-21T22:36:16.584Z,101874.28
2022-09-21T22:38:44.899Z,101875.84
2022-09-21T22:41:14.046Z,101870.53
2022-09-21T22:43:40.940Z,101873.72
2022-09-21T22:46:07.689Z,101867.44
2022-09-21T22:48:35.249Z,101871.16
2022-09-21T22:51:02.529Z,101871.16
2022-09-21T22:53:29.328Z,101875.72
2022-09-21T22:56:09.415Z,101874.31
2022-09-21T22:58:38.801Z,101874.47
2022-09-21T23:01:10.951Z,101879.03
2022-09-21T23:03:38.540Z,101877.34
2022-09-21T23:06:07.495Z,101873.78
2022-09-21T23:08:34.359Z,101880.66
2022-09-21T23:11:15.723Z,101874.13
2022-09-21T23:13:42.664Z,101872.28
2022-09-21T23:16:11.462Z,101879.41
2022-09-21T23:18:40.020Z,101872.97
2022-09-21T23:21:10.246Z,101879.25
2022-09-21T23:23:36.797Z,101881.97
2022-09-21T23:26:09.100Z,101882.81
2022-09-21T23:28:36.662Z,101877.41
2022-09-21T23:31:06.262Z,101878.94
2022-09-21T23:33:45.132Z,101879.81
2022-09-21T23:36:13.760Z,101878.94
2022-09-21T23:38:40.705Z,101879.25
2022-09-21T23:41:13.328Z,101879.25
2022-09-21T23:43:41.074Z,101882.13
2022-09-21T23:46:09.543Z,101877.72
2022-09-21T23:48:36.482Z,101881.28
2022-09-21T23:51:03.653Z,101886.72
2022-09-21T23:53:30.955Z,101885.88
2022-09-21T23:55:58.142Z,101885.00
2022-09-21T23:58:25.553Z,101880.56
